메인 페이지
METAR-TAF:

METAR-TAF

공항 :

신트외스타티위스 섬, 네덜란드령 안틸레스

위도: 17-29N, 경도: 062-59W, 고도: 38m

현재 날씨관측

예보는 38분 전, 09:55시(UTC)에 발표되었습니다.
북동12kt풍과 풍을 오가는
온도 25°C
습도 79%
기압 1017 hPa

METAR: TNCE 180955Z AUTO 04012KT 360V080 //// // ///////// 25/21 Q1017 RE//

시각: 06:33 (10:33 UTC)


TAF: 누락

4,000개 이상의 공항 관측 자료 및 예보 (METAR 및 TAF 보고).

지도상에서 검색 가능한 기상관측소가 노란 점과 빨간 점으로 표시되어 있습니다.

기상관측소 명을 보려면 표시 위로 마우스를 이동하세요.

날씨 관측과 예보를 보려면 클릭하세요.

지도 변경 : 확대하려면 엑스 표시가 있는 녹색 버튼, 축소하려면 빼기 표시가 있는 녹색 버튼, 다음 페이지의 지도를 보려면 녹색 화살표를 클릭하세요.


METAR-TAF: